Time;durP1;ratioP1;P1;durP2;ratioP2;P2;SDS_P1;SDS_P2;PMS_P1;PMS_P2;Temp;Humidity;BMP_temperature;BMP_pressure;BME280_temperature;BME280_humidity;BME280_pressure;Samples;Min_cycle;Max_cycle;Signal;HPM_P1;HPM_P2
2022/02/13 00:00:44;;;;;;;13.93;6.45;;;2.00;87.60;;;;;;5071511;28;20035;-57
2022/02/13 00:03:10;;;;;;;13.57;6.18;;;2.00;87.70;;;;;;5071753;28;20024;-58
2022/02/13 00:05:35;;;;;;;13.65;6.45;;;1.90;87.70;;;;;;5071551;28;20024;-58
2022/02/13 00:08:01;;;;;;;15.88;6.50;;;1.90;87.80;;;;;;5071273;28;20028;-57
2022/02/13 00:10:27;;;;;;;15.23;6.35;;;1.90;87.90;;;;;;5070132;28;20055;-58
2022/02/13 00:12:52;;;;;;;12.40;5.78;;;1.90;88.00;;;;;;5071414;28;20031;-57
2022/02/13 00:15:18;;;;;;;17.20;5.78;;;1.90;88.00;;;;;;5071102;28;20043;-57
2022/02/13 00:17:43;;;;;;;14.10;6.25;;;1.90;88.70;;;;;;5071461;28;20082;-58
2022/02/13 00:20:09;;;;;;;15.13;6.70;;;1.90;88.30;;;;;;5071249;28;20074;-57
2022/02/13 00:22:35;;;;;;;13.63;6.20;;;1.80;88.50;;;;;;5071326;28;20029;-58
2022/02/13 00:25:00;;;;;;;14.98;5.95;;;1.80;88.50;;;;;;5071256;28;20021;-58
2022/02/13 00:27:27;;;;;;;11.15;5.50;;;1.80;88.60;;;;;;5071207;28;20500;-57
2022/02/13 00:29:53;;;;;;;14.65;6.43;;;1.80;88.60;;;;;;5070020;28;20024;-57
2022/02/13 00:32:19;;;;;;;15.50;6.75;;;1.80;88.80;;;;;;5070519;28;20029;-57
2022/02/13 00:34:45;;;;;;;14.38;5.55;;;1.70;88.90;;;;;;5071189;28;20020;-57
2022/02/13 00:37:11;;;;;;;13.93;5.57;;;1.70;89.10;;;;;;5069848;28;20016;-58
2022/02/13 00:39:36;;;;;;;10.90;5.40;;;1.70;89.20;;;;;;5071339;28;20130;-58
2022/02/13 00:42:02;;;;;;;13.50;6.40;;;1.70;89.40;;;;;;5071216;28;20296;-57
2022/02/13 00:44:27;;;;;;;10.80;5.95;;;1.70;89.60;;;;;;5071101;28;20029;-57
2022/02/13 00:46:53;;;;;;;16.52;6.50;;;1.70;89.90;;;;;;5070968;28;20024;-58
2022/02/13 00:49:19;;;;;;;11.82;6.05;;;1.60;90.00;;;;;;5071252;28;20040;-57
2022/02/13 00:51:45;;;;;;;13.57;5.82;;;1.60;90.10;;;;;;5069741;28;20013;-58
2022/02/13 00:54:10;;;;;;;15.32;6.78;;;1.60;90.30;;;;;;5070953;28;20020;-58
2022/02/13 00:56:36;;;;;;;14.43;6.25;;;1.50;90.30;;;;;;5071074;28;20036;-58
2022/02/13 00:59:01;;;;;;;15.35;5.63;;;1.50;90.40;;;;;;5070798;28;20040;-57
2022/02/13 01:01:27;;;;;;;13.32;5.80;;;1.50;90.50;;;;;;5070887;28;20032;-57
2022/02/13 01:03:55;;;;;;;13.63;6.32;;;1.50;90.60;;;;;;5070935;28;20032;-57
2022/02/13 01:06:21;;;;;;;12.35;7.13;;;1.50;90.60;;;;;;5070709;28;20106;-57
2022/02/13 01:08:46;;;;;;;9.00;5.93;;;1.50;90.70;;;;;;5073865;28;20488;-57
2022/02/13 01:11:12;;;;;;;14.63;6.05;;;1.50;90.70;;;;;;5070887;28;20017;-57
2022/02/13 01:13:37;;;;;;;15.20;6.78;;;1.50;90.70;;;;;;5070912;28;20469;-57
2022/02/13 01:16:03;;;;;;;11.05;5.68;;;1.50;90.70;;;;;;5070494;28;20063;-57
2022/02/13 01:18:29;;;;;;;14.85;5.85;;;1.40;90.90;;;;;;5070672;28;20041;-57
2022/02/13 01:20:55;;;;;;;12.00;6.00;;;1.40;90.90;;;;;;5069425;28;20036;-57
2022/02/13 01:23:21;;;;;;;14.15;6.45;;;1.40;90.90;;;;;;5070745;28;20024;-57
2022/02/13 01:25:47;;;;;;;15.77;6.38;;;1.30;91.00;;;;;;5070840;28;20345;-57
2022/02/13 01:28:12;;;;;;;15.27;6.68;;;1.30;91.30;;;;;;5069504;28;20549;-57
2022/02/13 01:30:38;;;;;;;15.20;6.88;;;1.30;91.50;;;;;;5069528;28;20472;-57
2022/02/13 01:33:04;;;;;;;15.10;6.47;;;1.30;91.60;;;;;;5070855;28;20035;-57
2022/02/13 01:35:30;;;;;;;20.30;7.47;;;1.30;91.80;;;;;;5072290;28;20408;-56
2022/02/13 01:37:56;;;;;;;15.65;8.38;;;1.20;91.90;;;;;;5074911;28;20038;-57
2022/02/13 01:40:22;;;;;;;18.27;6.28;;;1.20;92.10;;;;;;5069958;28;20025;-57
2022/02/13 01:42:48;;;;;;;15.93;7.40;;;1.20;92.10;;;;;;5073468;28;20054;-57
2022/02/13 01:45:14;;;;;;;15.80;6.10;;;1.20;92.30;;;;;;5074116;28;20095;-58
2022/02/13 01:47:40;;;;;;;22.83;8.55;;;1.10;92.30;;;;;;5073958;28;20166;-57
2022/02/13 01:50:08;;;;;;;14.13;6.50;;;1.10;92.50;;;;;;5074192;28;20016;-57
2022/02/13 01:52:34;;;;;;;15.35;6.53;;;1.10;92.70;;;;;;5074282;28;20016;-58
2022/02/13 01:55:01;;;;;;;14.73;7.10;;;1.10;92.80;;;;;;5073934;28;20013;-58
2022/02/13 01:57:26;;;;;;;19.23;6.82;;;1.00;93.00;;;;;;5074125;28;20480;-57
2022/02/13 01:59:54;;;;;;;12.18;6.13;;;1.00;93.00;;;;;;5074053;28;20078;-57
2022/02/13 02:02:19;;;;;;;15.25;6.88;;;1.00;93.10;;;;;;5073765;28;20029;-56
2022/02/13 02:04:45;;;;;;;14.93;6.65;;;1.00;93.10;;;;;;5073662;28;20021;-58
2022/02/13 02:07:10;;;;;;;13.40;7.65;;;1.00;93.30;;;;;;5073913;28;20031;-57
2022/02/13 02:09:36;;;;;;;14.57;6.93;;;1.00;93.40;;;;;;5073916;28;20056;-57
2022/02/13 02:12:04;;;;;;;17.73;7.28;;;1.00;93.40;;;;;;5073636;28;20028;-57
2022/02/13 02:14:29;;;;;;;15.75;6.53;;;1.00;93.60;;;;;;5073921;28;20032;-57
2022/02/13 02:16:54;;;;;;;14.63;5.90;;;0.90;93.70;;;;;;5073728;28;20111;-57
2022/02/13 02:19:20;;;;;;;13.02;6.43;;;0.90;93.90;;;;;;5071796;28;20181;-57
2022/02/13 02:21:46;;;;;;;14.55;6.07;;;1.00;93.90;;;;;;5073634;28;20035;-58
2022/02/13 02:24:16;;;;;;;12.02;6.00;;;1.00;94.00;;;;;;5073572;28;20091;-57
2022/02/13 02:26:43;;;;;;;14.80;6.88;;;1.00;94.00;;;;;;5073439;28;20020;-57
2022/02/13 02:29:08;;;;;;;11.95;6.28;;;1.00;94.00;;;;;;5080970;28;20013;-57
2022/02/13 02:31:34;;;;;;;17.92;6.80;;;1.00;94.40;;;;;;5083237;28;20024;-57
2022/02/13 02:34:00;;;;;;;17.02;6.93;;;1.00;94.20;;;;;;5075949;28;20082;-57
2022/02/13 02:36:26;;;;;;;16.05;6.35;;;1.00;94.20;;;;;;5073516;28;20032;-57
2022/02/13 02:38:52;;;;;;;14.27;6.55;;;1.00;94.30;;;;;;5073336;28;20109;-57
2022/02/13 02:41:18;;;;;;;13.52;6.78;;;0.90;94.40;;;;;;5073275;28;20030;-57
2022/02/13 02:43:44;;;;;;;15.68;6.38;;;0.90;94.40;;;;;;5071727;28;20032;-57
2022/02/13 02:46:11;;;;;;;18.00;6.95;;;1.00;94.40;;;;;;5073093;28;20031;-57
2022/02/13 02:48:36;;;;;;;14.77;6.57;;;0.90;94.40;;;;;;5072984;28;20031;-57
2022/02/13 02:51:03;;;;;;;13.95;6.82;;;0.90;94.40;;;;;;5073086;28;20024;-57
2022/02/13 02:53:30;;;;;;;14.40;6.53;;;1.00;94.50;;;;;;5073076;28;20024;-58
2022/02/13 02:55:56;;;;;;;20.13;6.65;;;0.90;94.50;;;;;;5072084;28;20016;-57
2022/02/13 02:58:22;;;;;;;12.38;6.25;;;0.90;94.60;;;;;;5072901;28;20032;-57
2022/02/13 03:00:50;;;;;;;13.55;6.40;;;0.90;94.60;;;;;;5073439;28;20424;-57
2022/02/13 03:03:16;;;;;;;13.43;6.47;;;1.00;94.60;;;;;;5072762;28;20016;-57
2022/02/13 03:05:42;;;;;;;12.00;6.30;;;0.90;94.60;;;;;;5072614;28;20074;-57
2022/02/13 03:08:07;;;;;;;11.73;6.35;;;0.90;94.80;;;;;;5072662;28;20016;-57
2022/02/13 03:10:33;;;;;;;14.48;6.70;;;0.90;94.70;;;;;;5072696;28;20383;-57
2022/02/13 03:12:58;;;;;;;12.13;6.28;;;0.90;94.70;;;;;;5072741;28;20075;-57
2022/02/13 03:15:24;;;;;;;12.48;6.10;;;1.00;94.70;;;;;;5072336;28;20070;-57
2022/02/13 03:17:49;;;;;;;14.23;6.82;;;0.90;94.70;;;;;;5072404;28;20354;-57
2022/02/13 03:20:15;;;;;;;12.90;6.13;;;1.00;94.80;;;;;;5072141;28;20056;-57
2022/02/13 03:22:41;;;;;;;14.13;6.45;;;0.90;94.80;;;;;;5070909;28;20032;-57
2022/02/13 03:25:06;;;;;;;12.82;6.47;;;0.90;94.90;;;;;;5082713;28;20028;-57
2022/02/13 03:27:32;;;;;;;16.55;7.22;;;0.90;94.90;;;;;;5077206;28;20051;-57
2022/02/13 03:29:58;;;;;;;16.27;6.45;;;0.90;95.00;;;;;;5072385;28;20028;-57
2022/02/13 03:32:23;;;;;;;12.05;6.38;;;0.90;95.00;;;;;;5070690;28;20028;-57
2022/02/13 03:34:49;;;;;;;13.60;6.20;;;0.90;95.00;;;;;;5072155;28;20383;-57
2022/02/13 03:37:15;;;;;;;13.77;6.65;;;0.90;95.00;;;;;;5072090;28;20024;-57
2022/02/13 03:39:40;;;;;;;11.90;6.00;;;0.90;95.00;;;;;;5072066;28;20040;-56
2022/02/13 03:42:07;;;;;;;15.48;6.18;;;0.90;95.00;;;;;;5072003;28;20094;-57
2022/02/13 03:44:36;;;;;;;9.15;5.30;;;0.90;95.00;;;;;;5072268;28;20029;-57
2022/02/13 03:47:05;;;;;;;10.82;5.30;;;0.90;95.00;;;;;;5071728;28;20024;-57
2022/02/13 03:49:31;;;;;;;13.00;6.32;;;0.90;95.00;;;;;;5072187;28;20104;-57
2022/02/13 03:51:57;;;;;;;10.38;5.55;;;0.90;95.00;;;;;;5072001;28;20100;-57
2022/02/13 03:54:22;;;;;;;12.38;5.82;;;0.90;95.00;;;;;;5071619;28;20136;-57
2022/02/13 03:56:48;;;;;;;12.48;5.95;;;0.90;95.00;;;;;;5071773;28;20020;-57
2022/02/13 03:59:14;;;;;;;9.73;5.88;;;0.90;95.00;;;;;;5071518;28;20115;-58
2022/02/13 04:01:39;;;;;;;12.20;5.85;;;0.90;95.00;;;;;;5070520;28;20099;-58
2022/02/13 04:04:05;;;;;;;12.95;6.57;;;0.90;94.90;;;;;;5071368;28;20054;-58
2022/02/13 04:06:30;;;;;;;12.68;6.63;;;0.90;94.90;;;;;;5071275;28;20028;-58
2022/02/13 04:08:56;;;;;;;10.77;5.63;;;0.90;94.90;;;;;;5071762;28;20017;-58
2022/02/13 04:11:22;;;;;;;11.90;6.00;;;0.90;94.90;;;;;;5071399;28;20051;-58
2022/02/13 04:13:47;;;;;;;13.48;5.32;;;0.90;94.90;;;;;;5071406;28;20070;-58
2022/02/13 04:16:13;;;;;;;11.20;5.50;;;0.90;94.90;;;;;;5071341;28;20033;-58
2022/02/13 04:18:38;;;;;;;9.27;5.50;;;0.90;95.00;;;;;;5071418;28;20516;-58
2022/02/13 04:21:04;;;;;;;12.18;5.57;;;0.90;95.00;;;;;;5071190;28;20021;-57
2022/02/13 04:23:31;;;;;;;10.93;5.57;;;0.90;95.00;;;;;;5071459;28;20493;-58
2022/02/13 04:25:58;;;;;;;11.95;4.97;;;0.90;95.00;;;;;;5061946;28;20027;-58
2022/02/13 04:28:23;;;;;;;8.98;5.47;;;0.90;95.10;;;;;;5071036;28;20016;-57
2022/02/13 04:30:49;;;;;;;15.38;6.00;;;0.90;95.00;;;;;;5070136;28;20024;-57
2022/02/13 04:33:14;;;;;;;12.10;5.93;;;0.90;95.00;;;;;;5071121;28;20024;-58
2022/02/13 04:35:40;;;;;;;12.43;5.47;;;1.00;95.00;;;;;;5074288;28;20027;-58
2022/02/13 04:38:06;;;;;;;10.00;5.57;;;1.00;94.90;;;;;;5068497;28;20024;-57
2022/02/13 04:40:31;;;;;;;12.13;5.85;;;1.00;94.90;;;;;;5067511;28;20427;-57
2022/02/13 04:42:57;;;;;;;12.38;5.85;;;1.00;94.90;;;;;;5074065;28;20024;-57
2022/02/13 04:45:22;;;;;;;12.15;5.65;;;1.00;94.80;;;;;;5070945;28;20020;-58
2022/02/13 04:47:48;;;;;;;11.93;5.47;;;1.00;94.80;;;;;;5071009;28;20032;-57
2022/02/13 04:50:20;;;;;;;8.18;5.30;;;1.10;94.80;;;;;;5074007;28;20044;-57
2022/02/13 04:52:45;;;;;;;12.55;6.22;;;1.10;94.80;;;;;;5071100;28;20023;-58
2022/02/13 04:55:11;;;;;;;14.35;5.65;;;1.10;94.80;;;;;;5071046;28;20096;-57
2022/02/13 04:57:36;;;;;;;9.98;5.47;;;1.10;94.70;;;;;;5070903;28;20552;-58
2022/02/13 05:00:04;;;;;;;7.93;5.18;;;1.10;94.60;;;;;;5069619;28;20236;-57
2022/02/13 05:02:29;;;;;;;8.63;4.55;;;1.20;94.50;;;;;;5071000;28;20047;-58
2022/02/13 05:04:55;;;;;;;10.95;4.82;;;1.20;94.50;;;;;;5071028;28;20056;-58
2022/02/13 05:07:20;;;;;;;8.15;4.63;;;1.20;94.40;;;;;;5070780;28;20028;-57
2022/02/13 05:09:46;;;;;;;11.82;5.40;;;1.20;94.40;;;;;;5068147;28;20530;-58
2022/02/13 05:12:11;;;;;;;10.82;4.90;;;1.20;94.40;;;;;;5070750;28;20025;-57
2022/02/13 05:14:37;;;;;;;10.73;4.95;;;1.20;94.40;;;;;;5069609;28;20020;-57
2022/02/13 05:17:02;;;;;;;13.70;6.45;;;1.20;94.30;;;;;;5070681;28;20051;-58
2022/02/13 05:19:28;;;;;;;11.05;4.50;;;1.20;94.30;;;;;;5073140;28;20040;-58
2022/02/13 05:21:57;;;;;;;10.00;5.10;;;1.30;94.30;;;;;;5074798;28;20020;-58
2022/02/13 05:24:23;;;;;;;8.77;4.70;;;1.30;94.20;;;;;;5074499;28;20009;-58
2022/02/13 05:26:48;;;;;;;9.65;5.53;;;1.30;94.10;;;;;;5074462;28;20090;-57
2022/02/13 05:29:14;;;;;;;11.32;4.97;;;1.30;94.10;;;;;;5070714;28;20483;-57
2022/02/13 05:31:39;;;;;;;12.68;5.63;;;1.40;94.00;;;;;;5074607;28;20020;-57
2022/02/13 05:34:05;;;;;;;6.85;4.05;;;1.40;93.90;;;;;;5074249;28;20025;-59
2022/02/13 05:36:30;;;;;;;11.55;5.07;;;1.40;93.90;;;;;;5074465;28;20024;-57
2022/02/13 05:38:56;;;;;;;11.88;5.03;;;1.40;93.90;;;;;;5073141;28;20107;-57
2022/02/13 05:41:23;;;;;;;9.52;5.57;;;1.40;93.90;;;;;;5074183;28;20037;-57
2022/02/13 05:43:49;;;;;;;9.55;5.45;;;1.40;93.90;;;;;;5074419;28;20074;-57
2022/02/13 05:46:14;;;;;;;10.27;5.60;;;1.40;93.90;;;;;;5074144;28;20028;-57
2022/02/13 05:48:40;;;;;;;10.32;5.45;;;1.40;93.90;;;;;;5074244;28;20023;-57
2022/02/13 05:51:07;;;;;;;8.70;4.35;;;1.40;93.80;;;;;;5072846;28;20040;-57
2022/02/13 05:53:32;;;;;;;8.93;4.78;;;1.40;93.90;;;;;;5074248;28;20066;-58
2022/02/13 05:55:58;;;;;;;9.98;4.40;;;1.40;93.90;;;;;;5073925;28;20021;-57
2022/02/13 05:58:23;;;;;;;7.95;4.65;;;1.40;93.90;;;;;;5073107;28;20028;-57
2022/02/13 06:00:49;;;;;;;11.15;5.65;;;1.40;94.00;;;;;;5066357;28;20381;-57
2022/02/13 06:03:14;;;;;;;9.93;5.20;;;1.30;94.10;;;;;;5069696;28;20480;-58
2022/02/13 06:05:40;;;;;;;10.77;5.15;;;1.30;94.00;;;;;;5070756;28;20059;-57
2022/02/13 06:08:05;;;;;;;9.02;5.13;;;1.40;94.10;;;;;;5068223;28;20060;-57
2022/02/13 06:10:31;;;;;;;9.00;4.97;;;1.30;94.10;;;;;;5071912;28;20029;-57
2022/02/13 06:12:57;;;;;;;13.18;5.43;;;1.40;94.10;;;;;;5068925;28;20017;-57
2022/02/13 06:15:22;;;;;;;11.35;5.35;;;1.30;94.10;;;;;;5071071;28;20129;-58
2022/02/13 06:17:48;;;;;;;9.52;4.60;;;1.30;94.20;;;;;;5068279;28;20032;-58
2022/02/13 06:20:14;;;;;;;9.90;4.57;;;1.30;94.20;;;;;;5068026;28;20048;-57
2022/02/13 06:22:39;;;;;;;13.30;5.68;;;1.30;94.30;;;;;;5070270;28;20029;-58
2022/02/13 06:25:06;;;;;;;11.13;5.38;;;1.30;94.30;;;;;;5069582;28;20020;-58
2022/02/13 06:27:31;;;;;;;9.50;4.82;;;1.30;94.40;;;;;;5065711;28;20028;-57
2022/02/13 06:29:57;;;;;;;9.73;5.03;;;1.30;94.40;;;;;;5071677;28;20021;-58
2022/02/13 06:32:23;;;;;;;9.50;4.68;;;1.30;94.30;;;;;;5074615;28;20035;-58
2022/02/13 06:34:48;;;;;;;8.77;5.55;;;1.30;94.30;;;;;;5074672;28;20050;-58
2022/02/13 06:37:14;;;;;;;9.18;4.47;;;1.30;94.30;;;;;;5074973;28;20419;-57
2022/02/13 06:39:39;;;;;;;9.60;5.03;;;1.30;94.30;;;;;;5074708;28;20025;-58
2022/02/13 06:42:05;;;;;;;9.88;4.82;;;1.30;94.20;;;;;;5074896;28;20028;-58
2022/02/13 06:44:30;;;;;;;9.25;5.18;;;1.40;94.20;;;;;;5074839;28;20051;-58
2022/02/13 06:46:56;;;;;;;7.65;4.32;;;1.40;94.20;;;;;;5074806;28;20033;-57
2022/02/13 06:49:21;;;;;;;9.07;5.03;;;1.40;94.20;;;;;;5074766;28;20028;-58
2022/02/13 06:51:47;;;;;;;7.50;4.47;;;1.40;94.10;;;;;;5074873;28;20021;-57
2022/02/13 06:54:12;;;;;;;10.55;5.40;;;1.40;94.10;;;;;;5089993;28;20085;-58
2022/02/13 06:56:38;;;;;;;13.25;5.38;;;1.40;94.00;;;;;;5074695;28;20745;-58
2022/02/13 06:59:04;;;;;;;12.68;5.45;;;1.40;94.00;;;;;;5074470;28;20033;-58
2022/02/13 07:01:30;;;;;;;8.68;5.00;;;1.40;94.00;;;;;;5074657;28;20468;-58
2022/02/13 07:03:55;;;;;;;8.40;5.22;;;1.40;94.10;;;;;;5074502;28;20082;-57
2022/02/13 07:06:21;;;;;;;14.38;6.18;;;1.40;94.10;;;;;;5074317;28;20032;-57
2022/02/13 07:08:46;;;;;;;8.68;5.53;;;1.40;94.20;;;;;;5074138;28;20111;-57
2022/02/13 07:11:12;;;;;;;11.73;5.30;;;1.40;94.20;;;;;;5074273;28;20055;-57
2022/02/13 07:13:37;;;;;;;12.82;6.97;;;1.30;94.30;;;;;;5074407;28;20052;-58
2022/02/13 07:16:03;;;;;;;8.30;5.15;;;1.30;94.30;;;;;;5085918;28;20389;-57
2022/02/13 07:18:29;;;;;;;11.88;5.80;;;1.30;94.30;;;;;;5053968;28;20063;-57
2022/02/13 07:20:54;;;;;;;14.05;6.10;;;1.30;94.40;;;;;;5053692;28;20167;-57
2022/02/13 07:23:20;;;;;;;13.05;6.03;;;1.30;94.40;;;;;;5066684;28;20032;-57
2022/02/13 07:25:46;;;;;;;12.85;5.32;;;1.40;94.40;;;;;;5072386;28;20667;-58
2022/02/13 07:30:55;;;;;;;11.65;6.95;;;1.40;94.50;;;;;;5094581;28;20078;-57
2022/02/13 07:33:21;;;;;;;10.48;5.93;;;1.40;94.40;;;;;;5076036;28;20423;-57
2022/02/13 07:35:46;;;;;;;11.70;5.85;;;1.50;94.50;;;;;;5073917;28;20029;-57
2022/02/13 07:38:12;;;;;;;12.10;5.78;;;1.50;94.50;;;;;;5072406;28;20033;-58
2022/02/13 07:40:38;;;;;;;13.60;6.50;;;1.60;94.40;;;;;;5073670;28;20028;-57
2022/02/13 07:43:04;;;;;;;11.52;6.18;;;1.60;94.50;;;;;;5072439;28;20033;-57
2022/02/13 07:45:30;;;;;;;8.30;5.00;;;1.70;94.60;;;;;;5071284;28;20036;-57
2022/02/13 07:47:56;;;;;;;10.85;5.30;;;1.70;94.60;;;;;;5073985;28;20031;-57
2022/02/13 07:50:21;;;;;;;10.88;5.25;;;1.80;94.40;;;;;;5069724;28;20031;-57
2022/02/13 07:52:47;;;;;;;12.35;5.78;;;1.80;94.20;;;;;;5070324;28;20031;-56
2022/02/13 07:55:13;;;;;;;10.43;5.60;;;1.90;94.20;;;;;;5069669;28;20096;-58
2022/02/13 07:57:39;;;;;;;10.65;5.20;;;1.90;94.00;;;;;;5059189;28;20028;-57
2022/02/13 08:00:05;;;;;;;10.82;5.80;;;1.90;93.90;;;;;;5070741;28;20060;-57
2022/02/13 08:02:32;;;;;;;8.73;5.15;;;2.00;93.90;;;;;;5071658;28;20058;-57
2022/02/13 08:04:58;;;;;;;11.40;6.22;;;2.10;93.90;;;;;;5071737;28;20195;-57
2022/02/13 08:07:23;;;;;;;11.43;6.03;;;2.10;93.70;;;;;;5071354;28;20111;-57
2022/02/13 08:09:49;;;;;;;11.07;6.00;;;2.10;93.60;;;;;;5061461;28;20025;-57
2022/02/13 08:12:14;;;;;;;8.80;4.93;;;2.20;93.70;;;;;;5078745;28;20104;-58
2022/02/13 08:14:40;;;;;;;10.52;5.32;;;2.20;93.50;;;;;;5071374;28;20032;-57
2022/02/13 08:17:05;;;;;;;8.95;5.40;;;2.20;93.50;;;;;;5071286;28;20020;-57
2022/02/13 08:19:35;;;;;;;12.25;5.57;;;2.30;93.50;;;;;;5071442;28;20583;-57
2022/02/13 08:22:02;;;;;;;12.35;5.35;;;2.30;93.60;;;;;;5071492;28;20032;-57
2022/02/13 08:24:27;;;;;;;11.63;6.50;;;2.30;93.60;;;;;;5071628;28;20020;-59
2022/02/13 08:26:53;;;;;;;14.50;6.43;;;2.30;93.50;;;;;;5071152;28;20405;-57
2022/02/13 08:29:18;;;;;;;10.77;6.00;;;2.40;93.60;;;;;;5071237;28;20029;-57
2022/02/13 08:31:44;;;;;;;13.05;5.88;;;2.40;93.50;;;;;;5071219;28;20012;-57
2022/02/13 08:34:10;;;;;;;10.35;5.72;;;2.40;93.50;;;;;;5071082;28;20479;-57
2022/02/13 08:36:35;;;;;;;10.70;6.18;;;2.50;93.40;;;;;;5069935;28;20035;-58
2022/02/13 08:39:09;;;;;;;10.73;6.00;;;2.50;93.40;;;;;;5078267;28;20032;-58
2022/02/13 08:41:35;;;;;;;11.07;6.15;;;2.50;93.20;;;;;;5069936;28;20017;-57
2022/02/13 08:44:06;;;;;;;11.55;6.50;;;2.60;93.20;;;;;;5069869;28;21009;-57
2022/02/13 08:46:32;;;;;;;8.73;5.82;;;2.70;93.00;;;;;;5071223;28;20023;-57
2022/02/13 08:48:58;;;;;;;12.55;5.50;;;2.70;93.20;;;;;;5070906;28;20092;-57
2022/02/13 08:51:23;;;;;;;10.23;5.85;;;2.80;93.20;;;;;;5072162;28;20162;-57
2022/02/13 08:53:49;;;;;;;12.82;6.13;;;2.80;92.90;;;;;;5071877;28;20069;-57
2022/02/13 08:56:14;;;;;;;11.93;6.40;;;2.90;93.10;;;;;;5088096;28;20503;-57
2022/02/13 08:58:40;;;;;;;11.48;5.90;;;3.00;92.90;;;;;;5070587;28;20024;-57
2022/02/13 09:01:05;;;;;;;12.43;6.45;;;3.00;92.60;;;;;;5072460;28;20028;-57
2022/02/13 09:03:31;;;;;;;10.20;5.57;;;3.10;92.50;;;;;;5070195;28;20025;-57
2022/02/13 09:05:57;;;;;;;11.38;6.28;;;3.20;92.60;;;;;;5072437;28;20389;-57
2022/02/13 09:08:23;;;;;;;11.60;6.35;;;3.20;92.50;;;;;;5071709;28;20021;-57
2022/02/13 09:10:48;;;;;;;13.85;6.65;;;3.40;92.80;;;;;;5073305;28;20098;-57
2022/02/13 09:13:14;;;;;;;11.80;6.80;;;3.50;92.60;;;;;;5072268;28;20060;-57
2022/02/13 09:15:39;;;;;;;12.43;6.18;;;3.50;92.30;;;;;;5072441;28;20031;-57
2022/02/13 09:18:10;;;;;;;12.18;6.13;;;3.60;92.10;;;;;;5072212;28;20028;-58
2022/02/13 09:20:35;;;;;;;10.40;6.78;;;3.70;92.40;;;;;;5072308;28;20497;-57
2022/02/13 09:23:01;;;;;;;12.63;6.53;;;3.80;92.00;;;;;;5072184;28;20036;-58
2022/02/13 09:25:26;;;;;;;11.15;6.65;;;3.90;91.90;;;;;;5070985;28;20111;-58
2022/02/13 09:27:52;;;;;;;7.72;5.80;;;4.00;92.00;;;;;;5072150;28;20028;-58
2022/02/13 09:30:17;;;;;;;10.50;5.80;;;4.10;91.70;;;;;;5070914;28;20079;-58
2022/02/13 09:32:43;;;;;;;11.30;5.57;;;4.20;91.40;;;;;;5070518;28;20037;-58
2022/02/13 09:35:09;;;;;;;9.52;6.07;;;4.30;91.10;;;;;;5068037;28;20028;-59
2022/02/13 09:37:35;;;;;;;10.88;5.80;;;4.40;91.00;;;;;;5068027;28;20025;-58
2022/02/13 09:40:00;;;;;;;9.52;5.47;;;4.50;90.50;;;;;;5068390;28;20354;-58
2022/02/13 09:42:27;;;;;;;9.07;5.65;;;4.60;90.60;;;;;;5067794;28;20111;-58
2022/02/13 09:44:52;;;;;;;7.00;5.00;;;4.70;90.70;;;;;;5067737;28;20017;-58
2022/02/13 09:47:20;;;;;;;8.88;4.63;;;4.80;90.70;;;;;;5067628;28;20029;-59
2022/02/13 09:49:45;;;;;;;8.65;5.13;;;4.90;90.20;;;;;;5067722;28;20021;-58
2022/02/13 09:52:12;;;;;;;7.22;4.78;;;5.00;90.10;;;;;;5063886;28;20119;-58
2022/02/13 09:54:38;;;;;;;7.10;4.80;;;5.10;89.30;;;;;;5067931;28;20052;-58
2022/02/13 09:59:53;;;;;;;7.90;4.63;;;5.30;88.90;;;;;;5065298;28;20498;-58
2022/02/13 10:02:34;;;;;;;10.10;5.43;;;5.50;88.40;;;;;;5067891;28;20048;-58
2022/02/13 10:05:01;;;;;;;7.57;4.05;;;5.70;87.50;;;;;;5081978;28;20024;-58
2022/02/13 10:07:27;;;;;;;7.20;4.88;;;5.80;86.80;;;;;;5068967;28;20024;-58
2022/02/13 10:09:59;;;;;;;7.10;4.82;;;6.00;86.90;;;;;;5072452;28;20465;-58
2022/02/13 10:12:38;;;;;;;7.35;4.47;;;6.10;85.60;;;;;;5072391;28;20628;-58
2022/02/13 10:15:25;;;;;;;8.55;4.75;;;6.20;84.70;;;;;;5072057;28;20067;-58
2022/02/13 10:18:08;;;;;;;6.55;4.28;;;6.30;84.00;;;;;;5071471;28;20029;-58
2022/02/13 10:20:40;;;;;;;8.73;4.72;;;6.50;83.70;;;;;;5066414;28;20472;-58
2022/02/13 10:23:11;;;;;;;6.45;4.10;;;6.70;83.00;;;;;;5069805;28;20044;-58
2022/02/13 10:25:38;;;;;;;6.05;3.95;;;6.90;82.90;;;;;;5067414;28;20024;-58
2022/02/13 10:28:14;;;;;;;7.82;4.20;;;7.20;81.60;;;;;;5070818;28;20028;-58
2022/02/13 10:30:42;;;;;;;6.07;4.30;;;7.90;80.40;;;;;;5071092;28;20726;-58
2022/02/13 10:33:21;;;;;;;6.63;3.92;;;8.60;77.80;;;;;;5063800;28;20024;-58
2022/02/13 10:36:08;;;;;;;7.10;4.00;;;9.20;73.90;;;;;;5065204;28;20433;-58
2022/02/13 10:38:36;;;;;;;5.05;4.07;;;9.80;72.30;;;;;;5071987;28;20270;-59
2022/02/13 10:41:20;;;;;;;6.50;4.20;;;10.50;69.40;;;;;;5066950;28;20044;-59
2022/02/13 10:44:04;;;;;;;6.25;3.72;;;11.40;66.90;;;;;;5059927;28;20021;-59
2022/02/13 10:46:31;;;;;;;6.38;3.80;;;12.50;65.00;;;;;;5066620;28;20024;-59
2022/02/13 10:48:57;;;;;;;6.70;4.03;;;13.30;61.20;;;;;;5071620;28;20051;-59
2022/02/13 10:51:23;;;;;;;6.38;3.60;;;14.00;59.50;;;;;;5069245;28;20035;-59
2022/02/13 10:53:49;;;;;;;4.32;3.38;;;14.30;56.50;;;;;;5069713;28;20016;-59
2022/02/13 10:56:15;;;;;;;4.63;3.05;;;14.60;55.50;;;;;;5067731;28;20029;-59
2022/02/13 10:58:41;;;;;;;4.80;3.10;;;14.90;54.10;;;;;;5067771;28;20023;-59
2022/02/13 11:01:07;;;;;;;3.97;3.17;;;15.40;54.10;;;;;;5060824;28;20476;-59
2022/02/13 11:03:36;;;;;;;4.75;3.15;;;16.20;51.60;;;;;;5067735;28;20027;-59
2022/02/13 11:06:06;;;;;;;6.15;3.40;;;16.10;50.50;;;;;;5067614;28;20016;-59
2022/02/13 11:08:41;;;;;;;5.07;2.97;;;16.40;50.40;;;;;;5070230;28;20016;-59
2022/02/13 11:11:07;;;;;;;4.07;2.85;;;16.70;49.90;;;;;;5070820;28;20044;-59
2022/02/13 11:13:33;;;;;;;6.32;4.00;;;16.90;50.30;;;;;;5062944;28;20503;-59
2022/02/13 11:15:59;;;;;;;4.60;3.17;;;17.40;48.30;;;;;;5067863;28;20044;-59
2022/02/13 11:18:30;;;;;;;5.40;3.30;;;17.00;48.10;;;;;;5071122;28;20086;-59
2022/02/13 11:20:56;;;;;;;6.13;4.13;;;16.80;49.10;;;;;;5071022;28;20728;-59
2022/02/13 11:23:28;;;;;;;3.90;3.30;;;16.60;48.60;;;;;;5071081;28;20366;-60
2022/02/13 11:25:59;;;;;;;6.00;3.17;;;16.20;50.20;;;;;;5071456;28;20029;-60
2022/02/13 11:28:45;;;;;;;4.78;3.28;;;15.90;51.20;;;;;;5065211;28;20476;-59
2022/02/13 11:31:42;;;;;;;5.38;3.53;;;16.00;51.50;;;;;;5062655;28;20087;-60
2022/02/13 11:34:16;;;;;;;5.88;4.00;;;16.10;50.60;;;;;;5070578;28;20777;-60
2022/02/13 11:37:08;;;;;;;5.05;3.00;;;16.20;50.00;;;;;;5070915;28;20029;-59
2022/02/13 11:39:39;;;;;;;5.15;3.13;;;16.30;50.40;;;;;;5065062;28;20068;-60
2022/02/13 11:42:21;;;;;;;6.05;3.88;;;16.10;51.00;;;;;;5068736;28;20039;-59
2022/02/13 11:45:01;;;;;;;6.15;3.70;;;15.70;49.90;;;;;;5063976;28;20031;-60
2022/02/13 11:47:35;;;;;;;5.55;3.70;;;15.30;52.40;;;;;;5057517;28;20451;-59
2022/02/13 11:50:11;;;;;;;5.63;3.60;;;15.40;52.50;;;;;;5050684;28;20048;-60
2022/02/13 11:52:39;;;;;;;5.63;3.58;;;15.60;52.30;;;;;;5050678;28;20446;-59
2022/02/13 11:55:06;;;;;;;6.45;3.70;;;15.80;51.80;;;;;;5050479;28;20489;-59
2022/02/13 11:57:33;;;;;;;5.28;3.65;;;16.10;51.10;;;;;;5050282;28;20029;-59
2022/02/13 11:59:58;;;;;;;4.47;3.97;;;16.20;50.30;;;;;;5050283;28;20040;-60
2022/02/13 12:02:30;;;;;;;6.10;3.85;;;16.10;50.60;;;;;;5050396;28;20041;-59
2022/02/13 12:05:07;;;;;;;5.45;3.63;;;16.10;51.00;;;;;;5050440;28;20040;-60
2022/02/13 12:07:42;;;;;;;4.82;3.60;;;16.00;50.40;;;;;;5050235;28;20082;-59
2022/02/13 12:10:12;;;;;;;5.15;3.65;;;15.90;50.60;;;;;;5058389;28;20024;-60
2022/02/13 12:12:40;;;;;;;5.10;3.50;;;15.90;51.10;;;;;;5070092;28;20032;-60
2022/02/13 12:15:06;;;;;;;4.60;3.22;;;16.10;51.40;;;;;;5069950;28;20477;-59
2022/02/13 12:17:32;;;;;;;5.00;3.50;;;16.50;50.50;;;;;;5067697;28;20082;-59
2022/02/13 12:20:13;;;;;;;4.75;3.10;;;16.50;49.80;;;;;;5069153;28;20048;-59
2022/02/13 12:22:39;;;;;;;4.00;2.83;;;16.90;51.00;;;;;;5067318;28;20028;-60
2022/02/13 12:25:09;;;;;;;4.57;3.22;;;17.00;50.30;;;;;;5069029;28;20552;-59
2022/02/13 12:27:36;;;;;;;5.47;3.53;;;17.20;49.80;;;;;;5069746;28;20036;-59
2022/02/13 12:30:08;;;;;;;3.67;2.78;;;17.10;48.70;;;;;;5060418;28;20033;-59
2022/02/13 12:32:42;;;;;;;3.45;2.78;;;16.70;49.60;;;;;;5062539;28;20029;-60
2022/02/13 12:35:13;;;;;;;5.15;3.58;;;16.40;50.00;;;;;;5063263;28;20040;-60
2022/02/13 12:37:47;;;;;;;4.80;3.28;;;16.30;50.30;;;;;;5057418;28;20029;-59
2022/02/13 12:40:16;;;;;;;4.63;3.00;;;16.20;50.20;;;;;;5057745;28;20048;-60
2022/02/13 12:42:47;;;;;;;5.97;3.38;;;16.20;50.30;;;;;;5047655;28;20035;-60
2022/02/13 12:45:17;;;;;;;4.43;2.97;;;16.00;49.40;;;;;;5060821;28;20024;-59
2022/02/13 12:47:45;;;;;;;4.05;3.15;;;15.80;50.60;;;;;;5051916;28;20435;-60
2022/02/13 12:50:16;;;;;;;5.63;3.15;;;15.80;50.90;;;;;;5078357;28;20052;-60
2022/02/13 12:52:43;;;;;;;5.85;3.10;;;15.60;50.30;;;;;;5068578;28;20103;-60